createdAt,value
2022-08-07T00:00:06.299Z,53.70
2022-08-07T00:04:01.823Z,54.50
2022-08-07T00:08:07.825Z,54.20
2022-08-07T00:12:09.258Z,56.60
2022-08-07T00:15:58.748Z,54.40
2022-08-07T00:20:00.690Z,54.60
2022-08-07T00:23:47.535Z,55.60
2022-08-07T00:27:56.402Z,55.10
2022-08-07T00:32:08.262Z,59.30
2022-08-07T00:39:59.174Z,55.60
2022-08-07T00:44:01.780Z,55.80
2022-08-07T00:48:07.744Z,55.70
2022-08-07T00:51:59.776Z,55.90
2022-08-07T00:56:03.082Z,56.30
2022-08-07T01:00:55.626Z,56.20
2022-08-07T01:05:03.499Z,59.40
2022-08-07T01:10:04.798Z,56.20
2022-08-07T01:13:29.274Z,56.30
2022-08-07T01:17:28.226Z,56.80
2022-08-07T01:21:22.806Z,57.20
2022-08-07T01:25:40.288Z,57.60
2022-08-07T01:29:33.828Z,57.10
2022-08-07T01:33:53.744Z,57.20
2022-08-07T01:37:49.897Z,59.30
2022-08-07T01:42:01.691Z,57.10
2022-08-07T01:45:50.525Z,56.90
2022-08-07T01:49:53.680Z,57.30
2022-08-07T01:54:12.373Z,58.00
2022-08-07T01:58:27.265Z,59.00
2022-08-07T02:03:12.519Z,58.30
2022-08-07T02:06:44.711Z,59.10
2022-08-07T02:14:40.261Z,58.20
2022-08-07T02:18:34.822Z,58.50
2022-08-07T02:22:54.860Z,59.70
2022-08-07T02:26:37.740Z,58.80
2022-08-07T02:30:31.066Z,59.10
2022-08-07T02:34:17.374Z,59.00
2022-08-07T02:38:05.504Z,59.10
2022-08-07T02:42:02.516Z,59.20
2022-08-07T02:46:04.603Z,59.60
2022-08-07T02:49:57.628Z,61.40
2022-08-07T02:53:54.917Z,59.30
2022-08-07T02:57:48.287Z,59.60
2022-08-07T03:01:39.373Z,60.10
2022-08-07T03:05:37.126Z,59.90
2022-08-07T03:09:41.886Z,60.00
2022-08-07T03:13:29.847Z,59.90
2022-08-07T03:17:31.754Z,60.10
2022-08-07T03:21:51.906Z,60.50
2022-08-07T03:25:58.078Z,60.40
2022-08-07T03:29:56.018Z,61.90
2022-08-07T03:33:48.885Z,60.90
2022-08-07T03:37:37.382Z,60.40
2022-08-07T03:45:39.658Z,60.50
2022-08-07T03:49:52.677Z,61.70
2022-08-07T03:54:23.610Z,61.70
2022-08-07T03:58:32.394Z,60.90
2022-08-07T04:02:03.035Z,60.80
2022-08-07T04:05:59.876Z,60.80
2022-08-07T04:09:50.108Z,60.70
2022-08-07T04:14:09.872Z,60.70
2022-08-07T04:18:57.735Z,62.50
2022-08-07T04:22:00.185Z,60.60
2022-08-07T04:25:55.575Z,60.60
2022-08-07T04:30:01.281Z,60.80
2022-08-07T04:33:54.932Z,60.90
2022-08-07T04:38:03.349Z,61.30
2022-08-07T04:41:53.192Z,61.10
2022-08-07T04:46:01.372Z,61.20
2022-08-07T04:50:08.088Z,62.00
2022-08-07T04:54:42.065Z,62.90
2022-08-07T04:59:17.793Z,62.60
2022-08-07T05:02:58.201Z,61.40
2022-08-07T05:07:25.115Z,62.60
2022-08-07T05:12:03.639Z,63.80
2022-08-07T05:15:55.210Z,62.90
2022-08-07T05:19:52.395Z,62.10
2022-08-07T05:23:42.771Z,63.10
2022-08-07T05:28:16.837Z,63.00
2022-08-07T05:31:47.556Z,63.20
2022-08-07T05:35:59.474Z,63.60
2022-08-07T05:40:06.030Z,65.80
2022-08-07T05:44:11.971Z,65.60
2022-08-07T05:48:17.859Z,65.00
2022-08-07T05:52:32.169Z,70.30
2022-08-07T05:56:30.236Z,74.50
2022-08-07T06:00:50.791Z,73.30
2022-08-07T06:04:56.340Z,72.50
2022-08-07T06:09:12.958Z,69.20
2022-08-07T06:18:55.752Z,67.10
2022-08-07T06:23:46.228Z,65.90
2022-08-07T06:31:16.250Z,62.10
2022-08-07T06:35:48.012Z,59.60
2022-08-07T06:40:29.853Z,57.30
2022-08-07T06:44:56.252Z,51.80
2022-08-07T06:49:14.860Z,52.30
2022-08-07T06:54:12.106Z,47.90
2022-08-07T06:57:43.622Z,50.70
2022-08-07T07:02:54.235Z,48.90
2022-08-07T07:06:26.598Z,43.60
2022-08-07T07:12:08.239Z,45.00
2022-08-07T07:16:01.730Z,41.00
2022-08-07T07:20:00.636Z,40.10
2022-08-07T07:29:39.627Z,37.30
2022-08-07T07:33:29.690Z,36.70
2022-08-07T07:38:02.069Z,37.10
2022-08-07T07:42:13.277Z,35.50
2022-08-07T07:46:40.125Z,33.80
2022-08-07T07:50:39.091Z,37.20
2022-08-07T08:00:00.680Z,32.80
2022-08-07T10:18:28.690Z,23.30
2022-08-07T11:10:09.019Z,22.40
2022-08-07T11:19:14.851Z,21.70
2022-08-07T11:49:51.444Z,21.70
2022-08-07T12:03:53.826Z,21.40
2022-08-07T12:48:27.722Z,21.20
2022-08-07T12:53:17.379Z,20.80
2022-08-07T12:58:11.658Z,21.40
2022-08-07T13:11:26.861Z,23.70
2022-08-07T13:30:41.413Z,26.80
2022-08-07T13:50:33.237Z,28.00
2022-08-07T13:55:26.213Z,27.60
2022-08-07T13:59:54.854Z,27.30
2022-08-07T14:08:00.123Z,27.70
2022-08-07T14:12:28.161Z,27.30
2022-08-07T14:35:08.848Z,28.60
2022-08-07T14:39:01.058Z,29.40
2022-08-07T14:43:55.645Z,29.50
2022-08-07T14:47:33.908Z,29.60
2022-08-07T14:52:04.226Z,31.80
2022-08-07T14:56:00.907Z,30.80
2022-08-07T15:03:55.915Z,32.20
2022-08-07T15:55:02.410Z,31.10
2022-08-07T17:16:30.068Z,33.70
2022-08-07T17:20:54.953Z,33.20
2022-08-07T17:25:47.209Z,33.80
2022-08-07T17:35:49.547Z,34.50
2022-08-07T17:40:30.490Z,33.80
2022-08-07T18:01:56.750Z,35.60
2022-08-07T18:06:57.897Z,34.10
2022-08-07T18:14:46.051Z,34.90
2022-08-07T18:21:01.359Z,36.00
2022-08-07T18:23:05.257Z,35.50
2022-08-07T18:45:42.809Z,36.10
2022-08-07T18:59:47.631Z,38.00
2022-08-07T19:04:13.639Z,37.00
2022-08-07T19:13:22.593Z,39.80
2022-08-07T19:17:55.945Z,40.00
2022-08-07T19:22:11.207Z,39.10
2022-08-07T19:26:22.845Z,41.70
2022-08-07T19:30:58.092Z,40.50
2022-08-07T19:38:52.559Z,39.70
2022-08-07T19:43:00.415Z,40.20
2022-08-07T19:47:27.213Z,40.50
2022-08-07T19:55:11.784Z,39.70
2022-08-07T19:59:59.172Z,39.90
2022-08-07T20:03:57.218Z,42.50
2022-08-07T20:07:53.332Z,42.80
2022-08-07T20:12:34.955Z,40.90
2022-08-07T20:16:57.698Z,42.00
2022-08-07T20:20:50.615Z,42.30
2022-08-07T20:29:48.431Z,43.40
2022-08-07T20:33:47.284Z,46.30
2022-08-07T20:37:55.771Z,42.80
2022-08-07T20:41:46.776Z,43.10
2022-08-07T20:46:27.745Z,43.40
2022-08-07T20:50:05.870Z,43.90
2022-08-07T20:54:36.001Z,46.90
2022-08-07T20:59:03.323Z,47.70
2022-08-07T21:03:29.222Z,48.60
2022-08-07T21:08:38.015Z,49.90
2022-08-07T21:12:28.827Z,50.60
2022-08-07T21:16:37.796Z,45.70
2022-08-07T21:21:14.011Z,50.10
2022-08-07T21:25:42.481Z,46.40
2022-08-07T21:30:46.478Z,50.30
2022-08-07T21:41:10.830Z,50.60
2022-08-07T21:54:10.385Z,53.20
2022-08-07T22:07:59.920Z,52.70
2022-08-07T22:11:53.118Z,53.90
2022-08-07T22:36:46.583Z,55.80
2022-08-07T23:00:36.964Z,58.00
2022-08-07T23:19:47.998Z,59.30
2022-08-07T23:25:28.526Z,53.80
2022-08-07T23:30:35.847Z,59.40
2022-08-07T23:38:54.434Z,59.10
2022-08-07T23:53:50.018Z,55.40
